Time;durP1;ratioP1;P1;durP2;ratioP2;P2;SDS_P1;SDS_P2;PMS_P1;PMS_P2;Temp;Humidity;BMP_temperature;BMP_pressure;BME280_temperature;BME280_humidity;BME280_pressure;Samples;Min_cycle;Max_cycle;Signal;HPM_P1;HPM_P2
2023/01/21 00:01:52;;;;;;;16.30;11.35;;;;;;;15.86;45.82;93142.31;4960201;28;20060;-93
2023/01/21 00:04:18;;;;;;;34.00;19.73;;;;;;;15.86;45.94;93143.06;4960116;28;20043;-93
2023/01/21 00:06:44;;;;;;;13.27;8.93;;;;;;;15.83;44.88;93140.59;4960483;28;20042;-92
2023/01/21 00:09:10;;;;;;;23.25;16.50;;;;;;;15.91;46.24;93149.75;4960084;28;20066;-93
2023/01/21 00:11:35;;;;;;;14.10;9.13;;;;;;;15.84;44.92;93148.28;4959430;28;20058;-93
2023/01/21 00:14:00;;;;;;;12.40;9.68;;;;;;;15.89;45.17;93149.50;4945189;28;20038;-93
2023/01/21 00:16:26;;;;;;;26.10;18.00;;;;;;;15.91;46.29;93150.50;4984710;28;20093;-93
2023/01/21 00:18:51;;;;;;;11.98;7.68;;;;;;;15.82;45.33;93139.09;4958851;28;20035;-93
2023/01/21 00:21:17;;;;;;;25.65;17.75;;;;;;;15.93;46.60;93150.72;4943172;28;20050;-93
2023/01/21 00:23:44;;;;;;;12.68;9.52;;;;;;;15.82;45.24;93153.47;4959916;28;20081;-93
2023/01/21 00:26:11;;;;;;;10.98;7.93;;;;;;;15.80;44.98;93147.06;4959930;28;20030;-93
2023/01/21 00:28:37;;;;;;;16.30;9.93;;;;;;;15.85;45.61;93141.59;4944811;28;20042;-93
2023/01/21 00:31:03;;;;;;;12.40;8.88;;;;;;;15.84;44.82;93139.34;4967146;28;20046;-93
2023/01/21 00:33:29;;;;;;;12.55;9.15;;;;;;;15.86;45.01;93143.06;4947881;28;20030;-93
2023/01/21 00:36:01;;;;;;;25.80;15.90;;;;;;;15.88;46.19;93142.56;4943589;28;20455;-93
2023/01/21 00:38:27;;;;;;;15.68;9.48;;;;;;;15.91;46.57;93141.56;4975950;28;20092;-93
2023/01/21 00:41:00;;;;;;;11.50;7.93;;;;;;;15.85;44.67;93129.94;4944263;28;20126;-93
2023/01/21 00:43:26;;;;;;;27.70;17.73;;;;;;;15.92;46.82;93141.06;4944214;28;20104;-93
2023/01/21 00:45:51;;;;;;;15.52;10.45;;;;;;;15.87;44.71;93143.81;4944673;28;20054;-93
2023/01/21 00:48:17;;;;;;;14.30;9.20;;;;;;;15.86;45.19;93136.88;4958922;28;20041;-93
2023/01/21 00:50:42;;;;;;;19.00;11.95;;;;;;;15.93;45.84;93139.84;4911661;29;20040;-93
2023/01/21 00:53:07;;;;;;;14.50;9.75;;;;;;;15.88;44.74;93148.03;4930415;28;20035;-93
2023/01/21 00:55:35;;;;;;;25.15;15.07;;;;;;;15.91;45.57;93145.03;4919956;29;20051;-93
2023/01/21 00:58:00;;;;;;;15.73;10.70;;;;;;;15.87;44.97;93141.09;4909295;29;20439;-93
2023/01/21 01:00:26;;;;;;;13.45;9.70;;;;;;;15.84;45.75;93148.28;4893573;28;20043;-93
2023/01/21 01:02:51;;;;;;;18.98;12.07;;;;;;;15.85;45.06;93149.75;4905201;29;20044;-93
2023/01/21 01:05:18;;;;;;;16.35;11.55;;;;;;;15.92;45.81;93149.25;4899811;28;20090;-93
2023/01/21 01:07:44;;;;;;;10.90;7.85;;;;;;;15.86;45.13;93151.25;4918194;29;20043;-93
2023/01/21 01:10:10;;;;;;;15.55;9.90;;;;;;;15.86;45.22;93153.22;4914143;29;20039;-93
2023/01/21 01:12:35;;;;;;;30.95;21.33;;;;;;;15.93;46.10;93158.16;4909979;29;20036;-93
2023/01/21 01:15:02;;;;;;;24.00;16.02;;;;;;;15.94;46.39;93154.94;4920049;29;20047;-93
2023/01/21 01:17:27;;;;;;;10.00;7.75;;;;;;;15.88;44.87;93156.94;4902213;29;20051;-93
2023/01/21 01:19:53;;;;;;;14.73;9.75;;;;;;;15.87;45.11;93165.63;4895520;29;20098;-93
2023/01/21 01:22:18;;;;;;;10.43;7.75;;;;;;;15.87;45.22;93158.19;4936858;28;20081;-92
2023/01/21 01:24:44;;;;;;;13.05;9.20;;;;;;;15.83;44.88;93156.94;4943229;28;20405;-93
2023/01/21 01:27:10;;;;;;;12.13;8.45;;;;;;;15.77;44.91;93165.16;4943225;28;20037;-93
2023/01/21 01:29:35;;;;;;;15.23;10.43;;;;;;;15.85;45.40;93166.13;4959121;28;20042;-93
2023/01/21 01:32:02;;;;;;;14.68;9.20;;;;;;;15.87;45.53;93162.88;4958493;28;20042;-93
2023/01/21 01:34:27;;;;;;;12.93;9.30;;;;;;;15.82;44.89;93169.09;4958543;28;20037;-93
2023/01/21 01:36:52;;;;;;;13.98;10.27;;;;;;;15.87;45.06;93163.63;4965386;28;20034;-93
2023/01/21 01:39:18;;;;;;;13.52;9.48;;;;;;;15.84;45.74;93164.63;4942015;28;20065;-93
2023/01/21 01:41:43;;;;;;;31.15;16.98;;;;;;;15.96;46.41;93159.91;4942848;28;20057;-92
2023/01/21 01:44:46;;;;;;;11.10;7.47;;;;;;;15.82;44.90;93153.47;4941254;28;20474;-93
2023/01/21 01:47:11;;;;;;;13.30;8.35;;;;;;;15.84;45.26;93151.00;4979339;28;20433;-93
2023/01/21 01:49:37;;;;;;;17.27;11.07;;;;;;;15.90;45.60;93153.72;4942501;28;20054;-93
2023/01/21 01:52:04;;;;;;;14.90;9.73;;;;;;;15.85;45.05;93146.28;4942381;28;20037;-93
2023/01/21 01:54:35;;;;;;;14.10;10.07;;;;;;;15.86;45.28;93147.78;4948731;28;20042;-93
2023/01/21 01:57:01;;;;;;;;;;;;;;;15.88;45.00;93145.28;4963690;28;20378;-93
2023/01/21 01:59:27;;;;;;;33.40;18.60;;;;;;;15.92;46.66;93140.34;4973199;28;19992;-93
2023/01/21 02:01:52;;;;;;;22.92;14.88;;;;;;;15.89;46.22;93135.88;4941176;28;20066;-93
2023/01/21 02:04:20;;;;;;;15.07;10.27;;;;;;;15.82;45.41;93142.56;4941259;28;20031;-92
2023/01/21 02:06:46;;;;;;;13.10;8.30;;;;;;;15.79;45.25;93134.69;4941756;28;20053;-92
2023/01/21 02:09:11;;;;;;;13.15;9.13;;;;;;;15.82;44.97;93134.41;4963349;28;20046;-93
2023/01/21 02:11:36;;;;;;;17.20;10.77;;;;;;;15.84;45.50;93136.63;4941850;28;20034;-94
2023/01/21 02:14:02;;;;;;;12.65;7.70;;;;;;;15.81;45.20;93132.91;4957944;28;20058;-93
2023/01/21 02:16:45;;;;;;;24.85;16.98;;;;;;;15.89;46.63;93133.16;4973228;28;20034;-93
2023/01/21 02:19:13;;;;;;;18.70;12.45;;;;;;;15.84;45.20;93134.66;4963210;28;20037;-92
2023/01/21 02:21:44;;;;;;;13.40;8.27;;;;;;;15.82;44.93;93130.94;4975064;28;20551;-93
2023/01/21 02:24:31;;;;;;;10.27;7.95;;;;;;;15.82;44.75;93134.41;4973034;28;20117;-93
2023/01/21 02:27:33;;;;;;;21.73;14.18;;;;;;;15.88;46.27;93124.22;4974961;28;20050;-93
2023/01/21 02:30:21;;;;;;;21.50;15.27;;;;;;;15.85;45.16;93130.69;4989787;28;20046;-93
2023/01/21 02:33:00;;;;;;;23.60;15.40;;;;;;;15.84;45.36;93129.19;4973972;28;20053;-93
2023/01/21 02:35:38;;;;;;;17.10;10.93;;;;;;;15.84;46.20;93125.72;4958011;28;20042;-93
2023/01/21 02:38:10;;;;;;;26.83;15.82;;;;;;;15.88;45.88;93134.38;4960486;28;20031;-92
2023/01/21 02:40:51;;;;;;;19.25;11.75;;;;;;;15.80;44.83;93134.19;4959328;28;20442;-93
2023/01/21 02:43:39;;;;;;;18.52;12.25;;;;;;;15.80;45.16;93125.28;4957254;28;20086;-93
2023/01/21 02:46:11;;;;;;;19.90;11.82;;;;;;;15.85;45.54;93121.75;4957793;28;20037;-93
2023/01/21 02:48:39;;;;;;;13.00;9.15;;;;;;;15.81;46.05;93119.28;4941767;28;20492;-93
2023/01/21 02:51:04;;;;;;;13.80;9.57;;;;;;;15.82;45.36;93123.50;4958125;28;20038;-93
2023/01/21 02:53:30;;;;;;;9.20;7.40;;;;;;;15.82;44.57;93125.47;4957908;28;20053;-93
2023/01/21 02:56:02;;;;;;;26.35;18.45;;;;;;;15.86;46.41;93121.25;4973939;28;20129;-93
2023/01/21 02:58:30;;;;;;;16.90;11.18;;;;;;;15.87;45.46;93120.03;4959259;28;20141;-93
2023/01/21 03:01:26;;;;;;;9.48;7.43;;;;;;;15.81;44.82;93122.00;4957429;28;20058;-93
2023/01/21 03:04:18;;;;;;;13.02;8.50;;;;;;;15.82;44.99;93136.38;4962532;28;20123;-93
2023/01/21 03:06:55;;;;;;;12.45;8.45;;;;;;;15.83;44.91;93116.06;4974190;28;20401;-93
2023/01/21 03:09:22;;;;;;;22.27;13.95;;;;;;;15.86;46.09;93124.00;4973341;28;20064;-93
2023/01/21 03:12:14;;;;;;;19.77;13.48;;;;;;;15.85;45.53;93117.06;4942719;28;20076;-93
2023/01/21 03:17:45;;;;;;;24.50;16.15;;;;;;;15.92;46.28;93122.00;4962914;28;20048;-93
2023/01/21 03:20:18;;;;;;;14.65;10.45;;;;;;;15.87;44.95;93113.81;4957287;28;20402;-93
2023/01/21 03:22:43;;;;;;;12.38;7.93;;;;;;;15.83;44.52;93121.50;4957999;28;20109;-93
2023/01/21 03:25:09;;;;;;;13.85;8.35;;;;;;;15.79;44.72;93115.59;4939997;28;20042;-93
2023/01/21 03:27:35;;;;;;;17.92;11.93;;;;;;;15.80;45.17;93114.38;4943215;28;20049;-93
2023/01/21 03:30:11;;;;;;;12.30;8.32;;;;;;;15.83;44.84;93114.09;4941741;28;20088;-93
2023/01/21 03:32:36;;;;;;;13.10;8.57;;;;;;;15.85;45.28;93110.84;4956739;28;20092;-93
2023/01/21 03:35:03;;;;;;;11.38;7.60;;;;;;;15.81;44.63;93115.81;4957524;28;20448;-92
2023/01/21 03:37:41;;;;;;;14.50;8.75;;;;;;;15.85;45.30;93108.88;4959730;28;20074;-93
2023/01/21 03:40:18;;;;;;;12.07;7.97;;;;;;;15.87;45.58;93113.81;4941546;28;20061;-92
2023/01/21 03:42:45;;;;;;;11.02;7.88;;;;;;;15.82;44.79;93120.03;4966592;28;20073;-93
2023/01/21 03:45:11;;;;;;;22.27;14.52;;;;;;;15.87;45.34;93111.09;4940434;28;20038;-93
2023/01/21 03:47:37;;;;;;;16.15;10.90;;;;;;;15.84;44.76;93114.81;4957535;28;20053;-93
2023/01/21 03:50:03;;;;;;;11.95;7.63;;;;;;;15.80;44.71;93114.38;4940939;28;20492;-91
2023/01/21 03:52:29;;;;;;;12.50;7.78;;;;;;;15.77;44.77;93111.41;4967556;28;20038;-93
2023/01/21 03:54:54;;;;;;;22.45;14.38;;;;;;;15.87;46.48;93114.56;4962456;28;20413;-93
2023/01/21 03:57:20;;;;;;;16.67;11.68;;;;;;;15.86;45.06;93113.09;4940679;28;20398;-93
2023/01/21 03:59:45;;;;;;;11.50;8.23;;;;;;;15.78;45.05;93117.59;4956719;28;20043;-93
2023/01/21 04:02:11;;;;;;;22.85;15.55;;;;;;;15.90;46.13;93110.09;4940494;28;20109;-93
2023/01/21 04:04:36;;;;;;;19.00;12.40;;;;;;;15.83;45.34;93122.25;4940948;28;20569;-93
2023/01/21 04:07:01;;;;;;;16.23;8.90;;;;;;;15.80;44.75;93108.91;4940548;28;20654;-93
2023/01/21 04:09:29;;;;;;;9.80;7.07;;;;;;;15.75;45.19;93118.59;4955970;28;20038;-93
2023/01/21 04:11:54;;;;;;;24.90;16.20;;;;;;;15.82;45.72;93117.31;4941216;28;20046;-93
2023/01/21 04:14:20;;;;;;;12.27;7.80;;;;;;;15.78;45.08;93112.13;4949566;28;20034;-93
2023/01/21 04:16:45;;;;;;;15.75;11.23;;;;;;;15.84;45.46;93114.81;4965267;28;20516;-93
2023/01/21 04:19:11;;;;;;;11.45;7.95;;;;;;;15.83;44.81;93113.34;4958015;28;20387;-93
2023/01/21 04:21:36;;;;;;;13.02;8.43;;;;;;;15.82;44.94;93104.41;4958474;28;20484;-93
2023/01/21 04:24:01;;;;;;;11.75;8.10;;;;;;;15.81;44.49;93108.38;4942468;28;20042;-93
2023/01/21 04:26:27;;;;;;;14.40;10.70;;;;;;;15.79;44.89;93110.16;4951498;28;20061;-93
2023/01/21 04:28:52;;;;;;;15.25;9.82;;;;;;;15.80;44.64;93106.94;4944288;28;20038;-94
2023/01/21 04:31:20;;;;;;;11.52;7.53;;;;;;;15.74;44.66;93112.41;4975968;28;20065;-93
2023/01/21 04:33:46;;;;;;;20.17;12.70;;;;;;;15.85;46.29;93113.59;4979238;28;20046;-93
2023/01/21 04:36:12;;;;;;;29.90;20.50;;;;;;;15.89;46.42;93111.34;4959289;28;20066;-93
2023/01/21 04:38:38;;;;;;;11.02;8.18;;;;;;;15.79;44.90;93116.34;4975854;28;20069;-92
2023/01/21 04:41:04;;;;;;;19.45;14.00;;;;;;;15.85;45.41;93102.69;4959433;28;20038;-93
2023/01/21 04:43:29;;;;;;;11.30;7.90;;;;;;;15.75;44.88;93105.69;4943640;28;20046;-93
2023/01/21 04:45:55;;;;;;;10.40;7.65;;;;;;;15.80;44.96;93112.38;4944369;28;20034;-93
2023/01/21 04:48:20;;;;;;;25.42;17.27;;;;;;;15.86;46.57;93117.78;4943540;28;20506;-93
2023/01/21 04:50:46;;;;;;;15.95;11.18;;;;;;;15.82;45.50;93112.59;4964182;28;20042;-93
2023/01/21 04:53:11;;;;;;;13.70;9.43;;;;;;;15.76;45.74;93111.91;4943611;28;20038;-93
2023/01/21 04:55:36;;;;;;;18.95;12.07;;;;;;;15.79;45.24;93108.16;4960976;28;20049;-93
2023/01/21 04:58:02;;;;;;;13.20;8.60;;;;;;;15.76;44.80;93109.16;4943710;28;20053;-93
2023/01/21 05:00:27;;;;;;;14.20;7.10;;;;;;;15.74;44.93;93117.84;4959949;28;20038;-93
2023/01/21 05:02:53;;;;;;;14.63;9.38;;;;;;;15.77;45.11;93113.38;4971562;28;20042;-93
2023/01/21 05:05:18;;;;;;;25.65;16.13;;;;;;;15.78;45.99;93117.59;4947308;28;20054;-93
2023/01/21 05:07:44;;;;;;;11.15;8.27;;;;;;;15.76;45.35;93117.34;4943874;28;20049;-93
2023/01/21 05:10:14;;;;;;;18.40;11.52;;;;;;;15.80;45.64;93117.84;4943205;28;20038;-93
2023/01/21 05:12:39;;;;;;;19.05;12.77;;;;;;;15.86;44.97;93113.09;4940841;28;20517;-93
2023/01/21 05:15:05;;;;;;;13.75;10.10;;;;;;;15.81;44.29;93115.81;4968939;28;20045;-92
2023/01/21 05:17:31;;;;;;;10.27;7.82;;;;;;;15.82;45.91;93114.59;4958454;28;20067;-94
2023/01/21 05:19:56;;;;;;;12.35;7.80;;;;;;;15.77;44.70;93113.38;4940781;28;20039;-93
2023/01/21 05:22:22;;;;;;;28.10;17.65;;;;;;;15.82;45.10;93101.69;4954920;28;20059;-93
2023/01/21 05:24:47;;;;;;;12.57;8.80;;;;;;;15.72;45.09;93108.69;4972808;28;20478;-93
2023/01/21 05:27:13;;;;;;;11.30;7.15;;;;;;;15.73;45.22;93113.63;4938120;28;20038;-93
2023/01/21 05:29:39;;;;;;;19.45;12.73;;;;;;;15.84;46.04;93117.56;4956930;28;20513;-93
2023/01/21 05:32:04;;;;;;;12.38;8.63;;;;;;;15.74;44.82;93112.41;4956469;28;20061;-92
2023/01/21 05:34:29;;;;;;;12.57;8.43;;;;;;;15.72;44.88;93114.88;4961206;28;20111;-93
2023/01/21 05:36:55;;;;;;;29.35;17.58;;;;;;;15.87;46.86;93124.72;4956101;28;20501;-93
2023/01/21 05:39:20;;;;;;;23.38;14.68;;;;;;;15.83;45.53;93130.44;4954258;28;20063;-93
2023/01/21 05:41:46;;;;;;;12.82;8.75;;;;;;;15.78;44.96;93123.03;4972664;28;20046;-93
2023/01/21 05:44:11;;;;;;;10.88;7.50;;;;;;;15.77;44.58;93125.03;4956383;28;20502;-93
2023/01/21 05:46:37;;;;;;;10.48;7.00;;;;;;;15.78;44.59;93123.03;4956764;28;20041;-94
2023/01/21 05:49:03;;;;;;;22.73;14.40;;;;;;;15.85;45.47;93122.50;4955488;28;20409;-92
2023/01/21 05:51:28;;;;;;;14.77;8.93;;;;;;;15.76;45.01;93120.06;4955860;28;20115;-93
2023/01/21 05:53:54;;;;;;;13.15;8.48;;;;;;;15.77;44.78;93127.00;4973820;28;20580;-93
2023/01/21 05:56:19;;;;;;;26.70;17.25;;;;;;;15.82;45.44;93131.69;4954943;28;20039;-93
2023/01/21 05:58:45;;;;;;;10.00;7.30;;;;;;;15.78;45.10;93128.50;4939821;28;20098;-92
2023/01/21 06:01:10;;;;;;;25.83;16.23;;;;;;;15.88;46.35;93129.69;4954836;28;20050;-94
2023/01/21 06:03:36;;;;;;;18.65;11.07;;;;;;;15.86;45.55;93125.97;4971174;28;20481;-93
2023/01/21 06:06:02;;;;;;;14.85;10.20;;;;;;;15.81;46.20;93134.91;4936285;29;20050;-93
2023/01/21 06:08:27;;;;;;;13.55;9.63;;;;;;;15.78;44.79;93133.94;4954963;28;20051;-93
2023/01/21 06:10:56;;;;;;;22.52;14.93;;;;;;;15.84;46.51;93129.19;4956041;28;20058;-93
2023/01/21 06:13:21;;;;;;;14.95;10.43;;;;;;;15.82;45.14;93137.13;4942305;28;20508;-93
2023/01/21 06:15:47;;;;;;;15.05;10.88;;;;;;;15.81;45.03;93134.91;4960175;28;20042;-93
2023/01/21 06:18:12;;;;;;;13.13;8.07;;;;;;;15.74;44.92;93133.44;4941329;28;20113;-93
2023/01/21 06:20:40;;;;;;;13.40;9.05;;;;;;;15.77;45.09;93138.66;4946885;28;20042;-93
2023/01/21 06:23:05;;;;;;;15.63;10.00;;;;;;;15.81;45.07;93137.63;4941866;28;20050;-93
2023/01/21 06:25:31;;;;;;;13.48;9.68;;;;;;;15.82;44.90;93134.41;4941585;28;20042;-93
2023/01/21 06:27:56;;;;;;;25.58;16.20;;;;;;;15.89;46.47;93139.34;4942075;28;20198;-93
2023/01/21 06:30:23;;;;;;;29.77;17.27;;;;;;;15.85;46.30;93141.59;4941660;28;20065;-93
2023/01/21 06:32:48;;;;;;;11.18;7.45;;;;;;;15.79;44.70;93142.84;4974253;28;20046;-93
2023/01/21 06:35:14;;;;;;;12.60;7.95;;;;;;;15.75;44.75;93140.38;4943999;28;20098;-93
2023/01/21 06:37:39;;;;;;;11.73;7.60;;;;;;;15.73;44.80;93135.44;4942552;28;20042;-93
2023/01/21 06:40:06;;;;;;;9.50;6.55;;;;;;;15.73;44.78;93151.03;4957323;28;20058;-93
2023/01/21 06:42:32;;;;;;;21.70;13.52;;;;;;;15.80;46.30;93142.38;4942336;28;20038;-93
2023/01/21 06:44:57;;;;;;;11.25;7.72;;;;;;;15.77;44.96;93148.81;4942280;28;20046;-93
2023/01/21 06:47:23;;;;;;;13.98;9.27;;;;;;;15.75;45.44;93151.28;4944322;28;20167;-93
2023/01/21 06:49:48;;;;;;;11.63;7.80;;;;;;;15.73;44.79;93143.59;4957321;28;20260;-93
2023/01/21 06:52:15;;;;;;;23.10;14.13;;;;;;;15.81;46.33;93145.81;4943059;28;20030;-93
2023/01/21 06:54:42;;;;;;;12.52;7.70;;;;;;;15.75;44.72;93140.38;4955435;28;20034;-93
2023/01/21 06:57:09;;;;;;;12.93;8.20;;;;;;;15.73;44.93;93149.06;4957750;28;20118;-93
2023/01/21 06:59:34;;;;;;;13.82;8.77;;;;;;;15.79;45.11;93154.50;4943721;28;20049;-93
2023/01/21 07:02:00;;;;;;;27.27;16.35;;;;;;;15.85;46.74;93157.94;4957142;28;20026;-93
2023/01/21 07:04:25;;;;;;;18.88;10.95;;;;;;;15.79;45.04;93159.22;4941506;28;20475;-93
2023/01/21 07:06:51;;;;;;;11.85;8.15;;;;;;;15.77;45.55;93156.97;4934569;28;20030;-94
2023/01/21 07:09:16;;;;;;;26.95;17.15;;;;;;;15.84;46.46;93153.72;4956115;28;20453;-93
2023/01/21 07:11:42;;;;;;;16.63;10.98;;;;;;;15.83;45.49;93143.31;4941492;28;20034;-93
2023/01/21 07:14:08;;;;;;;10.80;7.80;;;;;;;15.72;44.86;93146.84;4940592;28;20100;-93
2023/01/21 07:16:33;;;;;;;21.92;14.82;;;;;;;15.75;45.18;93162.94;4957902;28;20133;-93
2023/01/21 07:18:59;;;;;;;11.32;7.95;;;;;;;15.70;45.36;93160.22;4973382;28;20046;-93
2023/01/21 07:21:24;;;;;;;15.23;10.15;;;;;;;15.75;44.99;93159.47;4975746;28;20404;-93
2023/01/21 07:23:53;;;;;;;18.55;11.50;;;;;;;15.75;45.38;93165.66;4958023;28;20042;-93
2023/01/21 07:26:18;;;;;;;29.17;19.52;;;;;;;15.86;45.69;93172.31;4957513;28;20413;-93
2023/01/21 07:28:44;;;;;;;13.00;9.23;;;;;;;15.74;45.11;93185.97;4973841;28;20031;-93
2023/01/21 07:31:09;;;;;;;10.45;7.53;;;;;;;15.78;44.54;93172.09;4940703;28;20089;-93
2023/01/21 07:33:34;;;;;;;10.68;6.95;;;;;;;15.79;44.59;93181.00;4961584;28;20050;-93
2023/01/21 07:36:01;;;;;;;10.85;7.50;;;;;;;15.74;44.79;93183.25;4941977;28;20042;-93
2023/01/21 07:38:26;;;;;;;10.95;7.50;;;;;;;15.74;44.72;93190.69;4951863;28;20046;-93
2023/01/21 07:40:52;;;;;;;13.13;8.70;;;;;;;15.81;44.77;93189.41;4955391;28;20038;-93
2023/01/21 07:43:17;;;;;;;11.32;7.43;;;;;;;15.76;44.65;93188.94;4961185;28;20046;-93
2023/01/21 07:45:43;;;;;;;12.70;7.95;;;;;;;15.77;44.44;93190.44;4973852;28;20062;-93
2023/01/21 07:48:09;;;;;;;13.10;7.53;;;;;;;15.80;45.04;93185.97;4940602;28;20066;-92
2023/01/21 07:50:34;;;;;;;9.48;6.28;;;;;;;15.76;44.59;93186.22;4956919;28;20095;-93
2023/01/21 07:53:00;;;;;;;14.90;10.48;;;;;;;15.83;45.28;93195.84;4941552;28;20042;-93
2023/01/21 07:55:27;;;;;;;14.77;10.48;;;;;;;15.76;44.64;93180.78;4956558;28;20046;-93
2023/01/21 07:57:55;;;;;;;34.05;21.85;;;;;;;15.87;46.33;93180.00;4957592;28;20043;-93
2023/01/21 08:00:20;;;;;;;21.30;14.85;;;;;;;15.83;44.94;93171.31;4944252;28;20393;-93
2023/01/21 08:02:52;;;;;;;12.85;7.68;;;;;;;15.81;44.58;93173.81;4960961;28;20031;-93
2023/01/21 08:05:18;;;;;;;25.10;17.70;;;;;;;15.88;46.04;93178.00;4961490;28;20100;-92
2023/01/21 08:07:43;;;;;;;16.70;10.60;;;;;;;15.83;44.96;93171.31;4961734;28;20038;-93
2023/01/21 08:10:09;;;;;;;9.65;7.20;;;;;;;15.77;45.07;93178.78;4944786;28;20042;-93
2023/01/21 08:12:34;;;;;;;17.98;12.43;;;;;;;15.80;45.04;93174.31;4944348;28;20039;-93
2023/01/21 08:15:00;;;;;;;29.70;18.35;;;;;;;15.79;45.49;93179.03;4945378;28;20050;-93
2023/01/21 08:17:26;;;;;;;18.90;12.52;;;;;;;15.77;45.26;93170.59;4944121;28;20382;-93
2023/01/21 08:19:51;;;;;;;14.82;9.40;;;;;;;15.78;45.39;93183.00;4950916;28;20489;-93
2023/01/21 08:22:17;;;;;;;23.38;13.90;;;;;;;15.83;46.23;93184.94;4943342;28;20045;-93
2023/01/21 08:24:43;;;;;;;11.60;7.10;;;;;;;15.77;45.68;93182.25;4960987;28;20424;-93
2023/01/21 08:27:08;;;;;;;12.38;9.05;;;;;;;15.80;45.15;93183.25;4971352;28;20042;-93
2023/01/21 08:29:34;;;;;;;9.43;6.65;;;;;;;15.75;44.72;93187.47;4976080;28;20073;-93
2023/01/21 08:31:59;;;;;;;10.20;7.40;;;;;;;15.74;44.82;93188.69;4943590;28;20073;-93
2023/01/21 08:34:25;;;;;;;13.13;8.57;;;;;;;15.79;44.29;93195.38;4959814;28;20046;-93
2023/01/21 08:36:50;;;;;;;9.02;6.78;;;;;;;15.76;44.58;93193.66;4951847;28;20034;-93
2023/01/21 08:39:16;;;;;;;12.18;7.47;;;;;;;15.79;44.50;93203.56;4943296;28;20505;-93
2023/01/21 08:41:43;;;;;;;13.90;8.48;;;;;;;15.76;44.58;93202.56;4945639;28;20045;-93
2023/01/21 08:44:08;;;;;;;11.63;8.18;;;;;;;15.77;45.27;93200.59;4943963;28;20462;-93
2023/01/21 08:46:34;;;;;;;12.38;7.45;;;;;;;15.76;44.69;93210.75;4960778;28;20042;-93
2023/01/21 08:49:00;;;;;;;14.30;9.52;;;;;;;15.79;45.27;93213.72;4944544;28;20049;-93
2023/01/21 08:51:25;;;;;;;23.13;14.18;;;;;;;15.79;44.55;93225.38;4943432;28;20038;-93
2023/01/21 08:53:51;;;;;;;10.57;6.95;;;;;;;15.77;45.00;93219.66;4944682;28;20034;-94
2023/01/21 08:56:16;;;;;;;10.10;7.60;;;;;;;15.76;44.42;93226.34;4944026;28;20129;-93
2023/01/21 08:58:42;;;;;;;10.32;7.45;;;;;;;15.75;44.59;93225.63;4976807;28;20149;-93
2023/01/21 09:01:08;;;;;;;14.57;10.00;;;;;;;15.77;44.66;93233.28;4948160;28;20085;-93
2023/01/21 09:03:33;;;;;;;10.82;6.90;;;;;;;15.75;44.66;93222.88;4942323;28;20039;-93
2023/01/21 09:06:00;;;;;;;12.65;6.95;;;;;;;15.74;44.73;93232.31;4944586;28;20034;-94
2023/01/21 09:08:26;;;;;;;12.32;8.13;;;;;;;15.76;44.44;93237.25;4976971;28;20039;-93
2023/01/21 09:11:02;;;;;;;13.18;7.75;;;;;;;15.77;44.49;93236.03;4944210;28;20092;-93
2023/01/21 09:13:33;;;;;;;20.23;13.00;;;;;;;15.82;45.23;93237.22;4947596;28;20050;-93
2023/01/21 09:15:59;;;;;;;;;;;;;;;15.84;44.75;93238.22;4965655;28;20038;-93
2023/01/21 09:18:25;;;;;;;9.10;6.35;;;;;;;15.78;44.65;93240.22;4970454;28;19928;-93
2023/01/21 09:20:50;;;;;;;12.38;8.18;;;;;;;15.81;45.44;93252.84;4944063;28;20038;-93
2023/01/21 09:23:25;;;;;;;12.43;7.18;;;;;;;15.80;44.72;93250.63;4943448;28;20046;-93
2023/01/21 09:25:51;;;;;;;12.00;7.07;;;;;;;15.81;44.70;93252.84;4946321;28;20057;-93
2023/01/21 09:28:17;;;;;;;13.23;8.15;;;;;;;15.80;44.40;93258.81;4959543;28;20030;-93
2023/01/21 09:30:43;;;;;;;15.25;10.52;;;;;;;15.87;46.25;93255.56;4975891;28;20046;-93
2023/01/21 09:33:08;;;;;;;15.02;9.73;;;;;;;15.86;45.19;93254.81;4959680;28;20031;-93
2023/01/21 09:35:35;;;;;;;20.00;13.35;;;;;;;15.86;46.06;93241.19;4943286;28;20050;-94
2023/01/21 09:38:01;;;;;;;11.10;7.28;;;;;;;15.81;44.79;93252.09;4943965;28;20031;-93
2023/01/21 09:40:26;;;;;;;17.20;11.70;;;;;;;15.90;45.26;93249.88;4952577;28;20034;-93
2023/01/21 09:42:52;;;;;;;19.10;12.95;;;;;;;15.85;45.03;93255.31;4941326;28;20039;-93
2023/01/21 09:45:17;;;;;;;11.82;7.85;;;;;;;15.78;45.17;93256.59;4958592;28;20039;-93
2023/01/21 09:47:43;;;;;;;26.35;16.80;;;;;;;15.89;46.26;93255.81;4943569;28;20046;-93
2023/01/21 09:50:16;;;;;;;13.02;7.93;;;;;;;15.82;45.38;93264.47;4942579;28;20038;-93
2023/01/21 09:52:45;;;;;;;13.55;8.02;;;;;;;15.83;44.90;93261.25;4944265;28;20124;-93
2023/01/21 09:55:15;;;;;;;9.73;6.50;;;;;;;15.76;44.46;93259.81;4958648;28;20041;-93
2023/01/21 09:57:55;;;;;;;16.88;10.00;;;;;;;15.83;45.41;93266.72;4959363;28;20121;-94
2023/01/21 10:00:21;;;;;;;14.52;9.75;;;;;;;15.84;44.49;93270.94;4960970;28;20042;-93
2023/01/21 10:03:12;;;;;;;9.80;6.45;;;;;;;15.82;44.74;93272.66;4974114;28;20057;-93
2023/01/21 10:05:38;;;;;;;11.77;7.63;;;;;;;15.84;44.48;93268.19;4974505;28;20104;-93
2023/01/21 10:08:10;;;;;;;12.48;7.35;;;;;;;15.80;44.48;93262.28;4974203;28;20042;-93
2023/01/21 10:10:50;;;;;;;21.17;14.13;;;;;;;15.89;45.88;93270.19;4958786;28;20122;-93
2023/01/21 10:13:22;;;;;;;12.32;7.15;;;;;;;15.83;44.60;93258.53;4969557;28;20209;-93
2023/01/21 10:16:25;;;;;;;11.73;8.00;;;;;;;15.86;44.32;93251.34;4948677;28;20544;-93
2023/01/21 10:18:51;;;;;;;12.82;9.07;;;;;;;15.88;44.73;93257.06;4990080;28;20096;-93
2023/01/21 10:21:36;;;;;;;10.02;6.63;;;;;;;15.84;44.75;93251.09;4941397;28;20054;-93
2023/01/21 10:24:09;;;;;;;19.05;11.77;;;;;;;15.87;45.59;93250.13;4957997;28;20584;-93
2023/01/21 10:26:35;;;;;;;12.55;7.45;;;;;;;15.84;44.38;93245.66;4958332;28;20073;-93
2023/01/21 10:29:00;;;;;;;15.05;8.93;;;;;;;15.83;46.07;93253.09;4942710;28;20034;-93
2023/01/21 10:31:31;;;;;;;17.15;11.85;;;;;;;15.81;44.71;93250.13;4941212;28;20046;-93
2023/01/21 10:33:57;;;;;;;23.52;15.48;;;;;;;15.88;45.77;93249.63;4942237;28;20038;-93
2023/01/21 10:36:25;;;;;;;26.77;16.35;;;;;;;15.88;45.68;93254.31;4941448;28;20050;-93
2023/01/21 10:39:17;;;;;;;9.57;7.28;;;;;;;15.83;44.82;93252.34;4974593;28;20038;-93
2023/01/21 10:41:54;;;;;;;21.10;12.70;;;;;;;15.89;45.94;93248.38;4972138;28;20038;-93
2023/01/21 10:44:47;;;;;;;12.80;6.40;;;;;;;15.80;44.85;93248.66;4957382;28;20125;-93
2023/01/21 10:47:21;;;;;;;13.13;8.70;;;;;;;15.75;44.70;93247.41;4943690;28;20049;-93
2023/01/21 10:49:52;;;;;;;18.42;11.48;;;;;;;15.82;45.03;93248.13;4975954;28;20042;-93
2023/01/21 10:52:33;;;;;;;14.10;7.75;;;;;;;15.81;45.09;93243.91;4958023;28;20038;-93
2023/01/21 10:55:27;;;;;;;10.60;7.38;;;;;;;15.84;44.45;93249.13;4966850;28;20058;-93
2023/01/21 10:58:12;;;;;;;15.38;10.23;;;;;;;15.82;44.89;93239.97;4954716;28;20078;-93
2023/01/21 11:00:43;;;;;;;10.85;7.78;;;;;;;15.85;44.19;93247.13;4977092;28;20077;-93
2023/01/21 11:03:19;;;;;;;11.43;6.93;;;;;;;15.85;44.44;93247.13;4949500;28;20034;-93
2023/01/21 11:05:44;;;;;;;10.38;7.68;;;;;;;15.86;44.66;93240.44;4957442;28;20500;-94
2023/01/21 11:08:16;;;;;;;13.07;7.75;;;;;;;15.84;44.35;93232.75;4957032;28;20066;-93
2023/01/21 11:10:41;;;;;;;12.88;8.88;;;;;;;15.92;44.43;93246.66;4942601;28;20030;-93
2023/01/21 11:13:09;;;;;;;14.95;10.77;;;;;;;15.89;45.63;93244.91;4958733;28;20039;-93
2023/01/21 11:15:43;;;;;;;11.27;7.35;;;;;;;15.87;44.78;93244.66;4937834;28;20509;-93
2023/01/21 11:18:29;;;;;;;21.60;14.00;;;;;;;15.94;46.17;93231.28;4969941;28;20035;-93
2023/01/21 11:20:59;;;;;;;27.20;17.23;;;;;;;15.91;45.52;93234.25;4954445;28;20520;-93
2023/01/21 11:23:27;;;;;;;25.83;16.35;;;;;;;15.90;45.42;93230.78;4969437;28;20043;-93
2023/01/21 11:25:59;;;;;;;16.05;11.07;;;;;;;15.91;45.30;93232.28;4955088;28;20073;-93
2023/01/21 11:28:26;;;;;;;11.10;6.60;;;;;;;15.89;44.26;93234.00;4953535;28;20047;-94
2023/01/21 11:31:17;;;;;;;26.05;17.83;;;;;;;15.93;45.53;93229.03;4954198;28;20545;-93